createdAt,value
2016-07-22T00:00:26.882Z,1009.76
2016-07-22T00:00:55.487Z,1009.73
2016-07-22T00:01:26.912Z,1009.75
2016-07-22T00:01:56.923Z,1009.77
2016-07-22T00:02:26.232Z,1009.77
2016-07-22T00:02:55.547Z,1009.78
2016-07-22T00:03:26.975Z,1009.83
2016-07-22T00:03:56.983Z,1009.81
2016-07-22T00:04:26.304Z,1009.85
2016-07-22T00:04:57.034Z,1009.8
2016-07-22T00:05:27.047Z,1009.85
2016-07-22T00:05:57.070Z,1009.85
2016-07-22T00:06:27.081Z,1009.87
2016-07-22T00:06:57.089Z,1009.87
2016-07-22T00:07:27.102Z,1009.85
2016-07-22T00:07:55.706Z,1009.87
2016-07-22T00:08:26.428Z,1009.87
2016-07-22T00:08:57.149Z,1009.85
2016-07-22T00:09:27.167Z,1009.84
2016-07-22T00:09:57.180Z,1009.83
2016-07-22T00:10:26.482Z,1009.84
2016-07-22T00:10:57.218Z,1009.81
2016-07-22T00:11:26.519Z,1009.8
2016-07-22T00:11:57.249Z,1009.8
2016-07-22T00:12:27.266Z,1009.78
2016-07-22T00:12:56.564Z,1009.73
2016-07-22T00:13:27.289Z,1009.77
2016-07-22T00:13:57.318Z,1009.76
2016-07-22T00:14:27.324Z,1009.74
2016-07-22T00:14:57.334Z,1009.73
2016-07-22T00:15:27.342Z,1009.75
2016-07-22T00:15:56.656Z,1009.77
2016-07-22T00:16:27.391Z,1009.79
2016-07-22T00:16:57.403Z,1009.76
2016-07-22T00:17:27.407Z,1009.71
2016-07-22T00:17:56.721Z,1009.72
2016-07-22T00:18:27.457Z,1009.67
2016-07-22T00:18:57.463Z,1009.75
2016-07-22T00:19:26.777Z,1009.76
2016-07-22T00:19:57.495Z,1009.75
2016-07-22T00:20:27.524Z,1009.75
2016-07-22T00:20:57.523Z,1009.73
2016-07-22T00:21:27.541Z,1009.76
2016-07-22T00:21:56.855Z,1009.76
2016-07-22T00:22:27.566Z,1009.72
2016-07-22T00:22:57.585Z,1009.77
2016-07-22T00:23:27.608Z,1009.78
2016-07-22T00:23:56.911Z,1009.76
2016-07-22T00:24:27.628Z,1009.78
2016-07-22T00:24:57.642Z,1009.77
2016-07-22T00:25:27.654Z,1009.76
2016-07-22T00:25:56.971Z,1009.77
2016-07-22T00:26:27.696Z,1009.76
2016-07-22T00:26:57.704Z,1009.72
2016-07-22T00:27:27.736Z,1009.73
2016-07-22T00:27:57.039Z,1009.73
2016-07-22T00:28:27.751Z,1009.67
2016-07-22T00:28:57.775Z,1009.69
2016-07-22T00:29:27.795Z,1009.71
2016-07-22T00:29:57.802Z,1009.69
2016-07-22T00:30:27.110Z,1009.7
2016-07-22T00:30:57.124Z,1009.65
2016-07-22T00:31:27.852Z,1009.65
2016-07-22T00:31:57.864Z,1009.66
2016-07-22T00:32:27.893Z,1009.66
2016-07-22T00:32:57.896Z,1009.66
2016-07-22T00:33:27.199Z,1009.61
2016-07-22T00:33:57.923Z,1009.62
2016-07-22T00:34:27.965Z,1009.62
2016-07-22T00:34:57.247Z,1009.61
2016-07-22T00:35:27.975Z,1009.59
2016-07-22T00:35:57.991Z,1009.6
2016-07-22T00:36:25.882Z,1009.58
2016-07-22T00:36:57.312Z,1009.6
2016-07-22T00:37:28.040Z,1009.59
2016-07-22T00:37:58.051Z,1009.56
2016-07-22T00:38:28.070Z,1009.56
2016-07-22T00:38:57.376Z,1009.6
2016-07-22T00:39:27.393Z,1009.56
2016-07-22T00:39:58.111Z,1009.58
2016-07-22T00:40:27.421Z,1009.54
2016-07-22T00:40:56.733Z,1009.57
2016-07-22T00:41:27.454Z,1009.54
2016-07-22T00:41:58.174Z,1009.55
2016-07-22T00:42:28.185Z,1009.53
2016-07-22T00:42:58.203Z,1009.55
2016-07-22T00:43:28.220Z,1009.56
2016-07-22T00:43:57.525Z,1009.55
2016-07-22T00:44:28.249Z,1009.58
2016-07-22T00:44:58.267Z,1009.58
2016-07-22T00:45:28.285Z,1009.53
2016-07-22T00:45:58.309Z,1009.56
2016-07-22T00:46:28.344Z,1009.56
2016-07-22T00:46:56.921Z,1009.58
2016-07-22T00:47:27.641Z,1009.6
2016-07-22T00:47:56.957Z,1009.59
2016-07-22T00:48:28.376Z,1009.59
2016-07-22T00:48:57.684Z,1009.58
2016-07-22T00:49:28.414Z,1009.6
2016-07-22T00:49:58.426Z,1009.6
2016-07-22T00:50:28.438Z,1009.63
2016-07-22T00:50:58.455Z,1009.64
2016-07-22T00:51:27.778Z,1009.6
2016-07-22T00:51:57.804Z,1009.66
2016-07-22T00:52:28.516Z,1009.61
2016-07-22T00:52:57.809Z,1009.63
2016-07-22T00:53:28.532Z,1009.62
2016-07-22T00:53:58.551Z,1009.59
2016-07-22T00:54:28.566Z,1009.62
2016-07-22T00:54:58.591Z,1009.63
2016-07-22T00:55:27.893Z,1009.65
2016-07-22T00:55:58.620Z,1009.63
2016-07-22T00:56:28.624Z,1009.61
2016-07-22T00:56:58.641Z,1009.57
2016-07-22T00:57:28.660Z,1009.6
2016-07-22T00:57:58.670Z,1009.58
2016-07-22T00:58:27.982Z,1009.57
2016-07-22T00:58:57.999Z,1009.54
2016-07-22T00:59:28.717Z,1009.54
2016-07-22T00:59:58.743Z,1009.59
2016-07-22T01:00:28.750Z,1009.57
2016-07-22T01:00:58.796Z,1009.54
2016-07-22T01:01:28.787Z,1009.56
2016-07-22T01:01:58.113Z,1009.59
2016-07-22T01:02:28.820Z,1009.54
2016-07-22T01:02:58.848Z,1009.54
2016-07-22T01:03:28.843Z,1009.57
2016-07-22T01:03:58.151Z,1009.58
2016-07-22T01:04:28.893Z,1009.61
2016-07-22T01:04:58.896Z,1009.61
2016-07-22T01:05:28.912Z,1009.62
2016-07-22T01:05:58.218Z,1009.6
2016-07-22T01:06:28.955Z,1009.58
2016-07-22T01:06:58.957Z,1009.64
2016-07-22T01:07:28.972Z,1009.6
2016-07-22T01:07:58.984Z,1009.61
2016-07-22T01:08:28.296Z,1009.64
2016-07-22T01:08:59.012Z,1009.59
2016-07-22T01:09:29.044Z,1009.58
2016-07-22T01:09:58.348Z,1009.59
2016-07-22T01:10:28.353Z,1009.61
2016-07-22T01:10:59.083Z,1009.58
2016-07-22T01:11:29.097Z,1009.6
2016-07-22T01:11:59.115Z,1009.58
2016-07-22T01:12:29.128Z,1009.58
2016-07-22T01:12:59.152Z,1009.56
2016-07-22T01:13:29.159Z,1009.59
2016-07-22T01:13:59.190Z,1009.52
2016-07-22T01:14:28.489Z,1009.57
2016-07-22T01:14:59.230Z,1009.52
2016-07-22T01:15:28.519Z,1009.55
2016-07-22T01:15:59.236Z,1009.55
2016-07-22T01:16:29.251Z,1009.56
2016-07-22T01:16:59.269Z,1009.57
2016-07-22T01:17:28.579Z,1009.54
2016-07-22T01:17:59.306Z,1009.57
2016-07-22T01:18:29.319Z,1009.56
2016-07-22T01:18:59.332Z,1009.54
2016-07-22T01:19:29.353Z,1009.59
2016-07-22T01:19:59.366Z,1009.59
2016-07-22T01:20:29.388Z,1009.6
2016-07-22T01:20:59.396Z,1009.59
2016-07-22T01:21:28.698Z,1009.61
2016-07-22T01:21:59.434Z,1009.64
2016-07-22T01:22:29.437Z,1009.63
2016-07-22T01:22:59.458Z,1009.61
2016-07-22T01:23:28.759Z,1009.65
2016-07-22T01:23:59.491Z,1009.63
2016-07-22T01:24:29.512Z,1009.62
2016-07-22T01:24:59.530Z,1009.63
2016-07-22T01:25:28.827Z,1009.64
2016-07-22T01:25:59.550Z,1009.63
2016-07-22T01:26:28.864Z,1009.64
2016-07-22T01:26:59.585Z,1009.62
2016-07-22T01:27:29.603Z,1009.63
2016-07-22T01:27:59.609Z,1009.65
2016-07-22T01:28:29.639Z,1009.62
2016-07-22T01:28:58.946Z,1009.66
2016-07-22T01:29:29.664Z,1009.68
2016-07-22T01:29:59.690Z,1009.65
2016-07-22T01:30:28.993Z,1009.62
2016-07-22T01:30:59.713Z,1009.62
2016-07-22T01:31:29.725Z,1009.65
2016-07-22T01:31:59.750Z,1009.61
2016-07-22T01:32:29.761Z,1009.62
2016-07-22T01:32:59.777Z,1009.63
2016-07-22T01:33:29.783Z,1009.65
2016-07-22T01:33:59.813Z,1009.61
2016-07-22T01:34:29.819Z,1009.63
2016-07-22T01:34:59.130Z,1009.6
2016-07-22T01:35:29.844Z,1009.6
2016-07-22T01:35:59.866Z,1009.61
2016-07-22T01:36:29.880Z,1009.63
2016-07-22T01:36:59.195Z,1009.65
2016-07-22T01:37:29.201Z,1009.63
2016-07-22T01:37:59.922Z,1009.6
2016-07-22T01:38:29.936Z,1009.62
2016-07-22T01:38:59.959Z,1009.63
2016-07-22T01:39:29.977Z,1009.64
2016-07-22T01:39:59.287Z,1009.66
2016-07-22T01:40:30.002Z,1009.6
2016-07-22T01:41:00.020Z,1009.61
2016-07-22T01:41:30.037Z,1009.6
2016-07-22T01:42:00.067Z,1009.59
2016-07-22T01:42:29.356Z,1009.6
2016-07-22T01:42:59.371Z,1009.58
2016-07-22T01:43:29.394Z,1009.57
2016-07-22T01:44:00.121Z,1009.56
2016-07-22T01:44:30.128Z,1009.57
2016-07-22T01:45:00.149Z,1009.56
2016-07-22T01:45:30.165Z,1009.56
2016-07-22T01:46:00.188Z,1009.58
2016-07-22T01:46:30.184Z,1009.61
2016-07-22T01:47:00.205Z,1009.59
2016-07-22T01:47:30.230Z,1009.61
2016-07-22T01:48:00.247Z,1009.62
2016-07-22T01:48:30.254Z,1009.63
2016-07-22T01:48:59.570Z,1009.61
2016-07-22T01:49:29.583Z,1009.62
2016-07-22T01:50:00.316Z,1009.6
2016-07-22T01:50:29.605Z,1009.59
2016-07-22T01:51:00.330Z,1009.59
2016-07-22T01:51:29.640Z,1009.6
2016-07-22T01:52:00.371Z,1009.56
2016-07-22T01:52:30.383Z,1009.61
2016-07-22T01:53:00.400Z,1009.58
2016-07-22T01:53:30.414Z,1009.59
2016-07-22T01:54:00.432Z,1009.56
2016-07-22T01:54:30.452Z,1009.56
2016-07-22T01:55:00.462Z,1009.58
2016-07-22T01:55:30.469Z,1009.56
2016-07-22T01:56:00.507Z,1009.57
2016-07-22T01:56:29.090Z,1009.59
2016-07-22T01:57:00.520Z,1009.57
2016-07-22T01:57:30.550Z,1009.62
2016-07-22T01:58:00.561Z,1009.61
2016-07-22T01:58:29.858Z,1009.61
2016-07-22T01:59:00.594Z,1009.59
2016-07-22T01:59:30.600Z,1009.56
2016-07-22T01:59:59.903Z,1009.57
2016-07-22T02:00:29.211Z,1009.58
2016-07-22T02:01:00.647Z,1009.57
2016-07-22T02:01:30.661Z,1009.58
2016-07-22T02:02:00.675Z,1009.57
2016-07-22T02:02:30.704Z,1009.56
2016-07-22T02:03:00.713Z,1009.58
2016-07-22T02:03:30.725Z,1009.57
2016-07-22T02:04:00.053Z,1009.55
2016-07-22T02:04:30.771Z,1009.58
2016-07-22T02:05:00.775Z,1009.57
2016-07-22T02:05:30.081Z,1009.55
2016-07-22T02:06:00.100Z,1009.57
2016-07-22T02:06:30.816Z,1009.58
2016-07-22T02:07:00.846Z,1009.55
2016-07-22T02:07:30.851Z,1009.51
2016-07-22T02:08:00.882Z,1009.56
2016-07-22T02:08:30.901Z,1009.47
2016-07-22T02:09:00.892Z,1009.53
2016-07-22T02:09:30.909Z,1009.51
2016-07-22T02:10:00.930Z,1009.5
2016-07-22T02:10:30.935Z,1009.52
2016-07-22T02:11:00.952Z,1009.51
2016-07-22T02:11:30.967Z,1009.54
2016-07-22T02:12:00.999Z,1009.53
2016-07-22T02:12:31.011Z,1009.54
2016-07-22T02:13:01.024Z,1009.56
2016-07-22T02:13:31.034Z,1009.58
2016-07-22T02:14:01.058Z,1009.56
2016-07-22T02:14:31.075Z,1009.58
2016-07-22T02:15:01.098Z,1009.55
2016-07-22T02:15:31.117Z,1009.56
2016-07-22T02:16:01.127Z,1009.58
2016-07-22T02:16:31.131Z,1009.54
2016-07-22T02:17:00.443Z,1009.52
2016-07-22T02:17:31.163Z,1009.52
2016-07-22T02:18:01.180Z,1009.56
2016-07-22T02:18:30.494Z,1009.51
2016-07-22T02:19:01.211Z,1009.51
2016-07-22T02:19:31.231Z,1009.52
2016-07-22T02:20:01.242Z,1009.51
2016-07-22T02:20:31.256Z,1009.51
2016-07-22T02:21:01.288Z,1009.5
2016-07-22T02:21:30.572Z,1009.47
2016-07-22T02:22:01.305Z,1009.47
2016-07-22T02:22:30.608Z,1009.49
2016-07-22T02:23:01.327Z,1009.48
2016-07-22T02:23:30.640Z,1009.5
2016-07-22T02:24:01.398Z,1009.49
2016-07-22T02:24:30.683Z,1009.53
2016-07-22T02:25:01.395Z,1009.49
2016-07-22T02:25:31.420Z,1009.46
2016-07-22T02:26:01.432Z,1009.48
2016-07-22T02:26:31.455Z,1009.51
2016-07-22T02:27:01.459Z,1009.46
2016-07-22T02:27:31.470Z,1009.5
2016-07-22T02:28:00.783Z,1009.48
2016-07-22T02:28:31.504Z,1009.45
2016-07-22T02:29:01.525Z,1009.4
2016-07-22T02:29:30.819Z,1009.43
2016-07-22T02:30:01.553Z,1009.41
2016-07-22T02:30:31.576Z,1009.43
2016-07-22T02:31:00.882Z,1009.44
2016-07-22T02:31:30.888Z,1009.44
2016-07-22T02:32:00.907Z,1009.42
2016-07-22T02:32:31.632Z,1009.41
2016-07-22T02:33:00.927Z,1009.42
2016-07-22T02:33:30.962Z,1009.42
2016-07-22T02:34:00.984Z,1009.42
2016-07-22T02:34:31.706Z,1009.4
2016-07-22T02:35:00.284Z,1009.42
2016-07-22T02:35:31.727Z,1009.41
2016-07-22T02:36:01.740Z,1009.41
2016-07-22T02:36:31.042Z,1009.39
2016-07-22T02:37:01.773Z,1009.41
2016-07-22T02:37:31.781Z,1009.38
2016-07-22T02:38:01.797Z,1009.41
2016-07-22T02:38:31.107Z,1009.44
2016-07-22T02:39:01.833Z,1009.41
2016-07-22T02:39:31.840Z,1009.43
2016-07-22T02:40:01.867Z,1009.41
2016-07-22T02:40:31.167Z,1009.42
2016-07-22T02:41:01.184Z,1009.39
2016-07-22T02:41:31.914Z,1009.44
2016-07-22T02:42:01.933Z,1009.42
2016-07-22T02:42:31.945Z,1009.45
2016-07-22T02:43:01.950Z,1009.41
2016-07-22T02:43:31.257Z,1009.39
2016-07-22T02:44:01.288Z,1009.46
2016-07-22T02:44:32.005Z,1009.45
2016-07-22T02:45:02.019Z,1009.48
2016-07-22T02:45:31.323Z,1009.49
2016-07-22T02:46:00.634Z,1009.48
2016-07-22T02:46:32.064Z,1009.49
2016-07-22T02:47:02.076Z,1009.49
2016-07-22T02:47:30.683Z,1009.51
2016-07-22T02:48:02.136Z,1009.49
2016-07-22T02:48:32.124Z,1009.51
2016-07-22T02:49:02.140Z,1009.52
2016-07-22T02:49:32.159Z,1009.47
2016-07-22T02:50:02.183Z,1009.5
2016-07-22T02:50:32.183Z,1009.48
2016-07-22T02:51:02.204Z,1009.47
2016-07-22T02:51:31.501Z,1009.49
2016-07-22T02:52:02.236Z,1009.49
2016-07-22T02:52:32.251Z,1009.47
2016-07-22T02:53:01.564Z,1009.46
2016-07-22T02:53:32.281Z,1009.47
2016-07-22T02:54:01.090Z,1009.47
2016-07-22T02:54:31.604Z,1009.43
2016-07-22T02:55:02.330Z,1009.49
2016-07-22T02:55:32.337Z,1009.48
2016-07-22T02:56:02.370Z,1009.5
2016-07-22T02:56:32.380Z,1009.47
2016-07-22T02:57:01.680Z,1009.46
2016-07-22T02:57:32.409Z,1009.43
2016-07-22T02:58:02.425Z,1009.45
2016-07-22T02:58:32.456Z,1009.43
2016-07-22T02:59:02.453Z,1009.48
2016-07-22T02:59:32.473Z,1009.49
2016-07-22T03:00:02.495Z,1009.48
2016-07-22T03:00:32.502Z,1009.47
2016-07-22T03:01:02.514Z,1009.48
2016-07-22T03:01:32.532Z,1009.46
2016-07-22T03:02:02.576Z,1009.49
2016-07-22T03:02:31.138Z,1009.47
2016-07-22T03:03:02.585Z,1009.47
2016-07-22T03:03:31.884Z,1009.45
2016-07-22T03:04:02.626Z,1009.44
2016-07-22T03:04:32.613Z,1009.44
2016-07-22T03:05:02.644Z,1009.43
2016-07-22T03:05:32.653Z,1009.43
2016-07-22T03:06:02.681Z,1009.44
2016-07-22T03:06:32.691Z,1009.44
2016-07-22T03:07:02.703Z,1009.44
2016-07-22T03:07:32.712Z,1009.44
2016-07-22T03:08:02.025Z,1009.43
2016-07-22T03:08:32.751Z,1009.46
2016-07-22T03:09:02.763Z,1009.45
2016-07-22T03:09:32.783Z,1009.47
2016-07-22T03:10:02.099Z,1009.46
2016-07-22T03:10:32.103Z,1009.43
2016-07-22T03:11:02.823Z,1009.46
2016-07-22T03:11:32.142Z,1009.44
2016-07-22T03:12:02.874Z,1009.43
2016-07-22T03:12:32.875Z,1009.48
2016-07-22T03:13:02.894Z,1009.46
2016-07-22T03:13:32.912Z,1009.47
2016-07-22T03:14:02.920Z,1009.44
2016-07-22T03:14:32.935Z,1009.44
2016-07-22T03:15:02.960Z,1009.44
2016-07-22T03:15:32.263Z,1009.47
2016-07-22T03:16:02.278Z,1009.44
2016-07-22T03:16:31.575Z,1009.43
2016-07-22T03:17:03.014Z,1009.44
2016-07-22T03:17:31.632Z,1009.41
2016-07-22T03:18:03.055Z,1009.44
2016-07-22T03:18:33.059Z,1009.4
2016-07-22T03:19:02.369Z,1009.43
2016-07-22T03:19:33.106Z,1009.41
2016-07-22T03:20:01.686Z,1009.39
2016-07-22T03:20:32.425Z,1009.4
2016-07-22T03:21:02.431Z,1009.34
2016-07-22T03:21:32.440Z,1009.38
2016-07-22T03:22:03.180Z,1009.38
2016-07-22T03:22:33.191Z,1009.38
2016-07-22T03:23:03.206Z,1009.39
2016-07-22T03:23:32.506Z,1009.39
2016-07-22T03:24:03.235Z,1009.41
2016-07-22T03:24:33.256Z,1009.36
2016-07-22T03:25:03.258Z,1009.36
2016-07-22T03:25:33.283Z,1009.36
2016-07-22T03:26:03.296Z,1009.38
2016-07-22T03:26:33.311Z,1009.36
2016-07-22T03:27:03.331Z,1009.36
2016-07-22T03:27:32.628Z,1009.38
2016-07-22T03:28:03.361Z,1009.35
2016-07-22T03:28:33.385Z,1009.34
2016-07-22T03:29:02.696Z,1009.37
2016-07-22T03:29:32.696Z,1009.38
2016-07-22T03:30:03.416Z,1009.39
2016-07-22T03:30:33.433Z,1009.33
2016-07-22T03:31:03.460Z,1009.38
2016-07-22T03:31:33.461Z,1009.34
2016-07-22T03:32:02.773Z,1009.37
2016-07-22T03:32:33.493Z,1009.4
2016-07-22T03:33:03.515Z,1009.42
2016-07-22T03:33:33.526Z,1009.38
2016-07-22T03:34:02.834Z,1009.44
2016-07-22T03:34:33.566Z,1009.45
2016-07-22T03:35:02.867Z,1009.45
2016-07-22T03:35:33.578Z,1009.42
2016-07-22T03:36:02.897Z,1009.47
2016-07-22T03:36:33.612Z,1009.44
2016-07-22T03:37:02.215Z,1009.43
2016-07-22T03:37:33.651Z,1009.43
2016-07-22T03:38:03.667Z,1009.44
2016-07-22T03:38:33.684Z,1009.44
2016-07-22T03:39:03.703Z,1009.42
2016-07-22T03:39:33.720Z,1009.45
2016-07-22T03:40:03.734Z,1009.44
2016-07-22T03:40:33.751Z,1009.41
2016-07-22T03:41:03.762Z,1009.42
2016-07-22T03:41:33.777Z,1009.38
2016-07-22T03:42:03.794Z,1009.44
2016-07-22T03:42:32.383Z,1009.42
2016-07-22T03:43:03.817Z,1009.39
2016-07-22T03:43:33.133Z,1009.41
2016-07-22T03:44:03.147Z,1009.38
2016-07-22T03:44:33.861Z,1009.37
2016-07-22T03:45:03.896Z,1009.33
2016-07-22T03:45:33.192Z,1009.34
2016-07-22T03:46:03.915Z,1009.34
2016-07-22T03:46:33.932Z,1009.33
2016-07-22T03:47:03.946Z,1009.32
2016-07-22T03:47:33.956Z,1009.32
2016-07-22T03:48:03.964Z,1009.31
2016-07-22T03:48:33.283Z,1009.34
2016-07-22T03:49:04.007Z,1009.36
2016-07-22T03:49:34.022Z,1009.34
2016-07-22T03:50:04.063Z,1009.34
2016-07-22T03:50:33.338Z,1009.38
2016-07-22T03:51:04.067Z,1009.33
2016-07-22T03:51:34.077Z,1009.33
2016-07-22T03:52:04.107Z,1009.39
2016-07-22T03:52:34.110Z,1009.37
2016-07-22T03:53:04.129Z,1009.34
2016-07-22T03:53:34.136Z,1009.36
2016-07-22T03:54:04.160Z,1009.36
2016-07-22T03:54:34.177Z,1009.36
2016-07-22T03:55:04.183Z,1009.41
2016-07-22T03:55:34.203Z,1009.37
2016-07-22T03:56:04.223Z,1009.4
2016-07-22T03:56:34.244Z,1009.44
2016-07-22T03:57:04.243Z,1009.41
2016-07-22T03:57:34.262Z,1009.38
2016-07-22T03:58:02.870Z,1009.43
2016-07-22T03:58:33.586Z,1009.42
2016-07-22T03:59:04.315Z,1009.4
2016-07-22T03:59:33.628Z,1009.43
2016-07-22T04:00:04.361Z,1009.4
2016-07-22T04:00:34.356Z,1009.4
2016-07-22T04:01:04.379Z,1009.4
2016-07-22T04:01:33.677Z,1009.39
2016-07-22T04:02:04.411Z,1009.39
2016-07-22T04:02:34.418Z,1009.38
2016-07-22T04:03:04.438Z,1009.38
2016-07-22T04:03:33.745Z,1009.35
2016-07-22T04:04:04.471Z,1009.38
2016-07-22T04:04:34.483Z,1009.38
2016-07-22T04:05:03.089Z,1009.38
2016-07-22T04:05:33.098Z,1009.4
2016-07-22T04:06:04.534Z,1009.41
2016-07-22T04:06:34.556Z,1009.41
2016-07-22T04:07:04.568Z,1009.43
2016-07-22T04:07:34.590Z,1009.42
2016-07-22T04:08:04.592Z,1009.42
2016-07-22T04:08:33.900Z,1009.43
2016-07-22T04:09:04.631Z,1009.46
2016-07-22T04:09:34.644Z,1009.46
2016-07-22T04:10:03.949Z,1009.45
2016-07-22T04:10:34.660Z,1009.44
2016-07-22T04:11:04.684Z,1009.45
2016-07-22T04:11:34.703Z,1009.45
2016-07-22T04:12:04.708Z,1009.43
2016-07-22T04:12:34.738Z,1009.45
2016-07-22T04:13:04.739Z,1009.43
2016-07-22T04:13:34.761Z,1009.45
2016-07-22T04:14:04.078Z,1009.47
2016-07-22T04:14:34.801Z,1009.46
2016-07-22T04:15:04.814Z,1009.46
2016-07-22T04:15:34.820Z,1009.46
2016-07-22T04:16:04.852Z,1009.46
2016-07-22T04:16:34.858Z,1009.49
2016-07-22T04:17:04.169Z,1009.42
2016-07-22T04:17:34.890Z,1009.43
2016-07-22T04:18:04.901Z,1009.48
2016-07-22T04:18:34.908Z,1009.43
2016-07-22T04:19:04.937Z,1009.44
2016-07-22T04:19:34.939Z,1009.41
2016-07-22T04:20:04.970Z,1009.43
2016-07-22T04:20:34.986Z,1009.41
2016-07-22T04:21:04.996Z,1009.44
2016-07-22T04:21:35.010Z,1009.4
2016-07-22T04:22:04.314Z,1009.4
2016-07-22T04:22:34.353Z,1009.41
2016-07-22T04:23:05.055Z,1009.43
2016-07-22T04:23:35.069Z,1009.46
2016-07-22T04:24:04.388Z,1009.43
2016-07-22T04:24:34.397Z,1009.45
2016-07-22T04:25:05.117Z,1009.49
2016-07-22T04:25:34.430Z,1009.47
2016-07-22T04:26:04.444Z,1009.49
2016-07-22T04:26:34.457Z,1009.5
2016-07-22T04:27:05.184Z,1009.5
2016-07-22T04:27:35.192Z,1009.5
2016-07-22T04:28:05.210Z,1009.51
2016-07-22T04:28:35.222Z,1009.52
2016-07-22T04:29:05.236Z,1009.52
2016-07-22T04:29:35.262Z,1009.51
2016-07-22T04:30:05.272Z,1009.51
2016-07-22T04:30:33.875Z,1009.55
2016-07-22T04:31:05.300Z,1009.5
2016-07-22T04:31:35.328Z,1009.51
2016-07-22T04:32:04.643Z,1009.49
2016-07-22T04:32:35.347Z,1009.51
2016-07-22T04:33:05.369Z,1009.5
2016-07-22T04:33:34.678Z,1009.49
2016-07-22T04:34:05.398Z,1009.54
2016-07-22T04:34:35.421Z,1009.53
2016-07-22T04:35:05.436Z,1009.53
2016-07-22T04:35:34.740Z,1009.54
2016-07-22T04:36:05.478Z,1009.56
2016-07-22T04:36:34.770Z,1009.55
2016-07-22T04:37:05.493Z,1009.55
2016-07-22T04:37:34.799Z,1009.57
2016-07-22T04:38:05.528Z,1009.53
2016-07-22T04:38:35.540Z,1009.56
2016-07-22T04:39:05.569Z,1009.57
2016-07-22T04:39:35.564Z,1009.53
2016-07-22T04:40:05.605Z,1009.55
2016-07-22T04:40:35.610Z,1009.55
2016-07-22T04:41:05.622Z,1009.54
2016-07-22T04:41:34.924Z,1009.58
2016-07-22T04:42:05.657Z,1009.59
2016-07-22T04:42:34.247Z,1009.59
2016-07-22T04:43:04.979Z,1009.57
2016-07-22T04:43:35.700Z,1009.54
2016-07-22T04:44:05.716Z,1009.54
2016-07-22T04:44:35.733Z,1009.55
2016-07-22T04:45:05.040Z,1009.58
2016-07-22T04:45:35.052Z,1009.57
2016-07-22T04:46:05.074Z,1009.6
2016-07-22T04:46:35.789Z,1009.61
2016-07-22T04:47:05.809Z,1009.6
2016-07-22T04:47:35.825Z,1009.62
2016-07-22T04:48:05.843Z,1009.66
2016-07-22T04:48:35.151Z,1009.63
2016-07-22T04:49:05.870Z,1009.66
2016-07-22T04:49:35.179Z,1009.61
2016-07-22T04:50:05.910Z,1009.64
2016-07-22T04:50:35.916Z,1009.62
2016-07-22T04:51:05.940Z,1009.65
2016-07-22T04:51:35.238Z,1009.65
2016-07-22T04:52:05.961Z,1009.65
2016-07-22T04:52:35.985Z,1009.68
2016-07-22T04:53:06.000Z,1009.72
2016-07-22T04:53:36.021Z,1009.66
2016-07-22T04:54:06.035Z,1009.68
2016-07-22T04:54:36.047Z,1009.69
2016-07-22T04:55:06.086Z,1009.67
2016-07-22T04:55:36.074Z,1009.73
2016-07-22T04:56:06.109Z,1009.72
2016-07-22T04:56:35.400Z,1009.73
2016-07-22T04:57:06.125Z,1009.74
2016-07-22T04:57:35.432Z,1009.71
2016-07-22T04:58:06.174Z,1009.73
2016-07-22T04:58:36.168Z,1009.72
2016-07-22T04:59:06.195Z,1009.73
2016-07-22T04:59:36.200Z,1009.72
2016-07-22T05:00:06.220Z,1009.74
2016-07-22T05:00:36.240Z,1009.74
2016-07-22T05:01:06.257Z,1009.7
2016-07-22T05:01:36.286Z,1009.72
2016-07-22T05:02:06.291Z,1009.7
2016-07-22T05:02:36.306Z,1009.71
2016-07-22T05:03:06.332Z,1009.69
2016-07-22T05:03:36.335Z,1009.69
2016-07-22T05:04:06.351Z,1009.72
2016-07-22T05:04:36.361Z,1009.71
2016-07-22T05:05:06.381Z,1009.73
2016-07-22T05:05:36.402Z,1009.75
2016-07-22T05:06:06.422Z,1009.75
2016-07-22T05:06:36.424Z,1009.77
2016-07-22T05:07:06.451Z,1009.77
2016-07-22T05:07:35.759Z,1009.77
2016-07-22T05:08:05.779Z,1009.79
2016-07-22T05:08:36.486Z,1009.8
2016-07-22T05:09:06.511Z,1009.77
2016-07-22T05:09:35.813Z,1009.8
2016-07-22T05:10:06.555Z,1009.75
2016-07-22T05:10:36.554Z,1009.78
2016-07-22T05:11:06.570Z,1009.78
2016-07-22T05:11:36.582Z,1009.8
2016-07-22T05:12:06.606Z,1009.77
2016-07-22T05:12:36.620Z,1009.83
2016-07-22T05:13:06.639Z,1009.83
2016-07-22T05:13:35.938Z,1009.8
2016-07-22T05:14:06.675Z,1009.84
2016-07-22T05:14:36.693Z,1009.82
2016-07-22T05:15:05.993Z,1009.85
2016-07-22T05:15:36.712Z,1009.84
2016-07-22T05:16:06.747Z,1009.84
2016-07-22T05:16:36.758Z,1009.84
2016-07-22T05:17:06.057Z,1009.86
2016-07-22T05:17:36.786Z,1009.91
2016-07-22T05:18:06.789Z,1009.9
2016-07-22T05:18:36.812Z,1009.9
2016-07-22T05:19:06.838Z,1009.92
2016-07-22T05:19:36.850Z,1009.91
2016-07-22T05:20:06.151Z,1009.92
2016-07-22T05:20:36.894Z,1009.94
2016-07-22T05:21:06.893Z,1009.96
2016-07-22T05:21:36.909Z,1009.93
2016-07-22T05:22:06.922Z,1009.97
2016-07-22T05:22:35.530Z,1009.96
2016-07-22T05:23:06.950Z,1009.95
2016-07-22T05:23:36.980Z,1009.97
2016-07-22T05:24:06.997Z,1009.94
2016-07-22T05:24:37.015Z,1009.96
2016-07-22T05:25:07.025Z,1009.98
2016-07-22T05:25:37.038Z,1009.97
2016-07-22T05:26:07.058Z,1010
2016-07-22T05:26:37.072Z,1009.97
2016-07-22T05:27:06.377Z,1009.97
2016-07-22T05:27:36.397Z,1009.97
2016-07-22T05:28:07.130Z,1009.93
2016-07-22T05:28:37.144Z,1009.97
2016-07-22T05:29:06.445Z,1009.99
2016-07-22T05:29:37.165Z,1009.95
2016-07-22T05:30:07.203Z,1009.97
2016-07-22T05:30:36.490Z,1009.95
2016-07-22T05:31:07.215Z,1010
2016-07-22T05:31:36.520Z,1010
2016-07-22T05:32:07.259Z,1009.96
2016-07-22T05:32:37.263Z,1010
2016-07-22T05:33:07.284Z,1009.94
2016-07-22T05:33:37.300Z,1009.96
2016-07-22T05:34:07.313Z,1009.93
2016-07-22T05:34:36.619Z,1009.95
2016-07-22T05:35:07.342Z,1009.93
2016-07-22T05:35:37.357Z,1009.92
2016-07-22T05:36:07.377Z,1009.88
2016-07-22T05:36:37.391Z,1009.91
2016-07-22T05:37:06.696Z,1009.9
2016-07-22T05:37:36.733Z,1009.88
2016-07-22T05:38:06.739Z,1009.9
2016-07-22T05:38:37.458Z,1009.9
2016-07-22T05:39:06.764Z,1009.87
2016-07-22T05:39:37.487Z,1009.88
2016-07-22T05:40:07.512Z,1009.86
2016-07-22T05:40:37.749Z,1009.9
2016-07-22T05:41:06.132Z,1009.9
2016-07-22T05:41:37.550Z,1009.91
2016-07-22T05:42:07.589Z,1009.88
2016-07-22T05:42:37.584Z,1009.88
2016-07-22T05:43:07.616Z,1009.89
2016-07-22T05:43:37.620Z,1009.94
2016-07-22T05:44:07.655Z,1009.89
2016-07-22T05:44:37.646Z,1009.95
2016-07-22T05:45:07.673Z,1009.93
2016-07-22T05:45:37.684Z,1009.91
2016-07-22T05:46:06.277Z,1009.91
2016-07-22T05:46:37.721Z,1009.91
2016-07-22T05:47:07.023Z,1009.91
2016-07-22T05:47:37.750Z,1009.93
2016-07-22T05:48:07.063Z,1009.93
2016-07-22T05:48:37.778Z,1009.9
2016-07-22T05:49:07.795Z,1009.96
2016-07-22T05:49:37.806Z,1009.92
2016-07-22T05:50:07.834Z,1009.95
2016-07-22T05:50:37.852Z,1009.96
2016-07-22T05:51:07.859Z,1009.97
2016-07-22T05:51:37.872Z,1009.99
2016-07-22T05:52:07.191Z,1010
2016-07-22T05:52:37.907Z,1010
2016-07-22T05:53:07.937Z,1009.99
2016-07-22T05:53:37.234Z,1010.03
2016-07-22T05:54:07.255Z,1010.02
2016-07-22T05:54:37.960Z,1010.03
2016-07-22T05:55:07.984Z,1010.04
2016-07-22T05:55:38.006Z,1010.05
2016-07-22T05:56:08.035Z,1010.03
2016-07-22T05:56:38.026Z,1010.03
2016-07-22T05:57:08.057Z,1010.06
2016-07-22T05:57:38.068Z,1010.07
2016-07-22T05:58:08.077Z,1010.07
2016-07-22T05:58:38.103Z,1010.05
2016-07-22T05:59:08.117Z,1010.07
2016-07-22T05:59:38.136Z,1010.08
2016-07-22T06:00:08.153Z,1010.06
2016-07-22T06:00:37.464Z,1010.1
2016-07-22T06:01:08.183Z,1010.1
2016-07-22T06:01:38.217Z,1010.11
2016-07-22T06:02:08.215Z,1010.12
2016-07-22T06:02:38.233Z,1010.14
2016-07-22T06:03:08.241Z,1010.11
2016-07-22T06:03:37.557Z,1010.13
2016-07-22T06:04:08.278Z,1010.1
2016-07-22T06:04:38.290Z,1010.14